createdAt,value
2018-03-14T00:00:54.473Z,9.07
2018-03-14T00:03:24.290Z,10.40
2018-03-14T00:05:55.340Z,7.43
2018-03-14T00:08:26.082Z,7.70
2018-03-14T00:10:56.648Z,9.93
2018-03-14T00:13:26.525Z,9.67
2018-03-14T00:15:57.587Z,8.40
2018-03-14T00:18:28.130Z,9.67
2018-03-14T00:20:57.876Z,8.17
2018-03-14T00:23:30.429Z,9.63
2018-03-14T00:26:00.343Z,9.93
2018-03-14T00:28:30.093Z,7.47
2018-03-14T00:31:01.605Z,8.63
2018-03-14T00:33:30.582Z,7.93
2018-03-14T00:36:00.826Z,10.67
2018-03-14T00:38:30.605Z,8.77
2018-03-14T00:40:59.981Z,9.67
2018-03-14T00:43:29.832Z,9.77
2018-03-14T00:46:00.187Z,8.43
2018-03-14T00:48:29.866Z,9.10
2018-03-14T00:51:00.271Z,7.97
2018-03-14T00:53:29.475Z,7.83
2018-03-14T00:55:58.629Z,7.77
2018-03-14T00:58:28.257Z,7.90
2018-03-14T01:00:57.867Z,7.80
2018-03-14T01:03:27.071Z,8.03
2018-03-14T01:05:55.722Z,8.67
2018-03-14T01:08:25.113Z,9.03
2018-03-14T01:10:54.269Z,7.83
2018-03-14T01:13:23.226Z,9.07
2018-03-14T01:15:53.980Z,13.73
2018-03-14T01:18:23.347Z,8.63
2018-03-14T01:20:53.591Z,9.53
2018-03-14T01:23:22.545Z,8.93
2018-03-14T01:25:51.565Z,9.17
2018-03-14T01:28:21.351Z,8.37
2018-03-14T01:30:51.048Z,9.03
2018-03-14T01:33:20.017Z,8.73
2018-03-14T01:35:49.665Z,8.20
2018-03-14T01:38:19.202Z,8.33
2018-03-14T01:40:48.090Z,8.90
2018-03-14T01:43:17.255Z,8.67
2018-03-14T01:45:45.860Z,9.57
2018-03-14T01:48:14.460Z,10.03
2018-03-14T01:50:43.699Z,9.20
2018-03-14T01:53:21.174Z,9.13
2018-03-14T01:55:50.414Z,8.57
2018-03-14T01:58:18.852Z,7.87
2018-03-14T02:00:47.626Z,9.87
2018-03-14T02:03:16.523Z,9.30
2018-03-14T02:05:45.360Z,9.03
2018-03-14T02:08:15.236Z,8.70
2018-03-14T02:10:43.827Z,9.47
2018-03-14T02:13:12.979Z,9.27
2018-03-14T02:15:41.806Z,10.23
2018-03-14T02:18:11.489Z,10.17
2018-03-14T02:20:40.339Z,10.50
2018-03-14T02:23:09.035Z,8.67
2018-03-14T02:25:37.696Z,10.17
2018-03-14T02:28:07.037Z,11.07
2018-03-14T02:30:35.862Z,11.93
2018-03-14T02:33:04.374Z,10.00
2018-03-14T02:35:33.849Z,10.83
2018-03-14T02:38:02.043Z,11.77
2018-03-14T02:40:32.220Z,13.40
2018-03-14T02:43:00.957Z,11.43
2018-03-14T02:45:29.512Z,13.13
2018-03-14T02:47:58.353Z,14.13
2018-03-14T02:50:26.828Z,14.43
2018-03-14T02:52:55.556Z,13.40
2018-03-14T02:55:24.261Z,15.83
2018-03-14T02:57:53.109Z,15.07
2018-03-14T03:00:22.748Z,15.53
2018-03-14T03:02:51.420Z,15.83
2018-03-14T03:05:20.019Z,17.00
2018-03-14T03:07:48.994Z,15.07
2018-03-14T03:10:17.803Z,15.60
2018-03-14T03:12:46.364Z,16.63
2018-03-14T03:15:14.723Z,17.13
2018-03-14T03:17:43.845Z,18.77
2018-03-14T03:20:13.591Z,17.47
2018-03-14T03:22:42.150Z,17.57
2018-03-14T03:25:10.725Z,17.40
2018-03-14T03:27:39.342Z,16.07
2018-03-14T03:30:08.004Z,17.33
2018-03-14T03:32:37.329Z,17.17
2018-03-14T03:35:06.027Z,16.63
2018-03-14T03:37:34.442Z,17.57
2018-03-14T03:40:03.404Z,16.60
2018-03-14T03:42:32.216Z,18.27
2018-03-14T03:45:02.148Z,17.53
2018-03-14T03:47:31.218Z,19.10
2018-03-14T03:50:01.055Z,16.87
2018-03-14T03:52:30.829Z,19.80
2018-03-14T03:55:00.305Z,17.07
2018-03-14T03:57:29.046Z,18.00
2018-03-14T03:59:57.731Z,20.17
2018-03-14T04:02:26.746Z,18.93
2018-03-14T04:04:55.036Z,19.97
2018-03-14T04:07:23.884Z,19.47
2018-03-14T04:09:52.920Z,19.17
2018-03-14T04:12:21.889Z,18.10
2018-03-14T04:14:50.294Z,17.33
2018-03-14T04:17:19.162Z,18.83
2018-03-14T04:19:47.992Z,20.17
2018-03-14T04:22:17.272Z,18.40
2018-03-14T04:24:46.109Z,16.83
2018-03-14T04:27:15.306Z,18.60
2018-03-14T04:29:44.618Z,17.93
2018-03-14T04:32:14.390Z,18.97
2018-03-14T04:34:43.261Z,17.80
2018-03-14T04:37:12.396Z,16.77
2018-03-14T04:39:42.223Z,16.13
2018-03-14T04:42:11.650Z,18.87
2018-03-14T04:44:41.493Z,14.57
2018-03-14T04:47:10.324Z,16.50
2018-03-14T04:49:39.242Z,15.43
2018-03-14T04:52:08.097Z,16.77
2018-03-14T04:54:37.458Z,15.00
2018-03-14T04:57:06.482Z,14.17
2018-03-14T04:59:35.026Z,15.90
2018-03-14T05:02:03.526Z,13.77
2018-03-14T05:04:31.960Z,13.30
2018-03-14T05:07:00.924Z,15.50
2018-03-14T05:09:30.144Z,13.67
2018-03-14T05:11:58.831Z,12.93
2018-03-14T05:14:27.426Z,11.73
2018-03-14T05:16:55.824Z,11.40
2018-03-14T05:19:24.500Z,12.40
2018-03-14T05:21:53.373Z,11.77
2018-03-14T05:24:24.410Z,12.37
2018-03-14T05:26:53.427Z,13.07
2018-03-14T05:29:22.026Z,11.93
2018-03-14T05:31:50.528Z,12.73
2018-03-14T05:34:19.669Z,11.37
2018-03-14T05:36:49.643Z,11.60
2018-03-14T05:39:18.970Z,10.07
2018-03-14T05:41:48.080Z,11.33
2018-03-14T05:44:16.686Z,12.27
2018-03-14T05:46:45.549Z,12.77
2018-03-14T05:49:14.529Z,13.90
2018-03-14T05:51:43.439Z,13.10
2018-03-14T05:54:13.320Z,12.90
2018-03-14T05:56:43.933Z,14.33
2018-03-14T05:59:12.622Z,13.13
2018-03-14T06:01:41.240Z,14.60
2018-03-14T06:04:09.904Z,13.47
2018-03-14T06:06:38.573Z,13.57
2018-03-14T06:09:08.141Z,14.60
2018-03-14T06:11:37.456Z,14.33
2018-03-14T06:14:06.958Z,12.33
2018-03-14T06:16:36.343Z,15.33
2018-03-14T06:19:05.621Z,12.50
2018-03-14T06:21:35.993Z,12.83
2018-03-14T06:24:04.936Z,12.83
2018-03-14T06:26:35.081Z,12.40
2018-03-14T06:29:04.309Z,12.70
2018-03-14T06:31:34.629Z,13.07
2018-03-14T06:34:03.605Z,12.43
2018-03-14T06:36:33.012Z,14.97
2018-03-14T06:39:02.752Z,53.27
2018-03-14T06:41:32.946Z,16.90
2018-03-14T06:44:03.349Z,15.40
2018-03-14T06:46:32.870Z,15.43
2018-03-14T06:49:02.032Z,15.40
2018-03-14T06:51:31.543Z,15.83
2018-03-14T06:54:00.807Z,15.60
2018-03-14T06:56:30.353Z,16.60
2018-03-14T07:01:13.686Z,15.10
2018-03-14T07:03:54.728Z,15.63
2018-03-14T07:06:24.617Z,15.80
2018-03-14T07:08:54.907Z,13.23
2018-03-14T07:11:24.168Z,15.77
2018-03-14T07:13:54.121Z,13.50
2018-03-14T07:16:23.646Z,14.97
2018-03-14T07:18:53.409Z,15.00
2018-03-14T07:21:22.833Z,17.73
2018-03-14T07:23:52.147Z,15.33
2018-03-14T07:26:21.875Z,19.07
2018-03-14T07:28:52.729Z,16.30
2018-03-14T07:31:22.996Z,15.93
2018-03-14T07:33:52.259Z,14.87
2018-03-14T07:36:21.278Z,15.77
2018-03-14T07:38:50.473Z,19.27
2018-03-14T07:41:19.525Z,17.50
2018-03-14T07:43:48.815Z,20.33
2018-03-14T07:46:18.584Z,17.73
2018-03-14T07:48:47.667Z,17.23
2018-03-14T07:51:16.986Z,18.90
2018-03-14T07:53:47.056Z,16.70
2018-03-14T07:56:16.582Z,15.83
2018-03-14T07:58:46.016Z,20.30
2018-03-14T08:01:15.921Z,16.77
2018-03-14T08:03:45.406Z,18.17
2018-03-14T08:06:15.721Z,19.13
2018-03-14T08:08:46.748Z,20.20
2018-03-14T08:11:16.652Z,17.83
2018-03-14T08:13:46.125Z,19.60
2018-03-14T08:16:16.372Z,16.90
2018-03-14T08:18:46.107Z,20.30
2018-03-14T08:21:16.187Z,20.33
2018-03-14T08:23:45.521Z,19.57
2018-03-14T08:26:15.683Z,22.97
2018-03-14T08:28:44.759Z,19.67
2018-03-14T08:31:15.852Z,19.03
2018-03-14T08:33:44.966Z,17.47
2018-03-14T08:36:16.453Z,21.17
2018-03-14T08:38:45.776Z,22.57
2018-03-14T08:41:14.982Z,22.20
2018-03-14T08:43:44.607Z,17.33
2018-03-14T08:46:14.599Z,20.97
2018-03-14T08:48:45.260Z,19.50
2018-03-14T08:51:14.618Z,20.80
2018-03-14T08:53:43.922Z,21.27
2018-03-14T08:56:13.371Z,19.70
2018-03-14T08:58:42.593Z,17.83
2018-03-14T09:01:12.636Z,19.00
2018-03-14T09:03:41.711Z,23.73
2018-03-14T09:06:11.964Z,18.10
2018-03-14T09:08:41.262Z,17.60
2018-03-14T09:11:11.017Z,17.67
2018-03-14T09:13:40.803Z,19.13
2018-03-14T09:16:10.536Z,19.87
2018-03-14T09:18:41.328Z,18.17
2018-03-14T09:21:10.867Z,17.67
2018-03-14T09:23:40.208Z,20.97
2018-03-14T09:26:10.158Z,19.63
2018-03-14T09:28:40.336Z,20.53
2018-03-14T09:31:10.532Z,21.57
2018-03-14T09:33:41.558Z,20.27
2018-03-14T09:36:11.093Z,20.07
2018-03-14T09:38:41.218Z,20.83
2018-03-14T09:41:10.784Z,18.57
2018-03-14T09:43:40.189Z,18.50
2018-03-14T09:46:10.770Z,21.57
2018-03-14T09:48:40.191Z,18.87
2018-03-14T09:51:09.975Z,19.97
2018-03-14T09:53:40.193Z,22.10
2018-03-14T09:56:11.512Z,18.53
2018-03-14T09:58:40.895Z,19.40
2018-03-14T10:01:10.573Z,20.73
2018-03-14T10:03:40.894Z,23.53
2018-03-14T10:06:10.266Z,20.87
2018-03-14T10:08:40.637Z,22.00
2018-03-14T10:11:10.406Z,20.40
2018-03-14T10:13:39.624Z,21.53
2018-03-14T10:16:08.992Z,19.27
2018-03-14T10:18:39.610Z,16.80
2018-03-14T10:21:08.923Z,17.87
2018-03-14T10:23:39.578Z,16.50
2018-03-14T10:26:09.516Z,18.93
2018-03-14T10:28:39.034Z,18.60
2018-03-14T10:31:08.517Z,15.87
2018-03-14T10:33:37.595Z,22.60
2018-03-14T10:36:07.843Z,18.13
2018-03-14T10:38:37.066Z,19.13
2018-03-14T10:41:06.365Z,18.73
2018-03-14T10:43:36.678Z,18.83
2018-03-14T10:46:06.716Z,21.93
2018-03-14T10:48:36.606Z,23.73
2018-03-14T10:51:05.795Z,22.43
2018-03-14T10:53:35.035Z,18.10
2018-03-14T10:56:04.868Z,19.47
2018-03-14T10:58:33.962Z,18.00
2018-03-14T11:01:07.742Z,18.17
2018-03-14T11:03:42.005Z,21.00
2018-03-14T11:06:11.479Z,18.20
2018-03-14T11:08:41.554Z,20.90
2018-03-14T11:11:13.248Z,28.33
2018-03-14T11:13:43.277Z,20.43
2018-03-14T11:16:12.826Z,19.27
2018-03-14T11:18:41.801Z,20.90
2018-03-14T11:21:11.134Z,18.93
2018-03-14T11:23:40.206Z,19.13
2018-03-14T11:26:09.496Z,16.93
2018-03-14T11:28:38.730Z,17.80
2018-03-14T11:31:07.892Z,20.63
2018-03-14T11:33:37.274Z,18.03
2018-03-14T11:36:06.352Z,18.50
2018-03-14T11:38:36.162Z,19.40
2018-03-14T11:41:06.003Z,17.67
2018-03-14T11:43:35.118Z,18.17
2018-03-14T11:46:04.197Z,19.93
2018-03-14T11:48:33.176Z,18.27
2018-03-14T11:51:02.683Z,18.07
2018-03-14T11:53:31.626Z,16.30
2018-03-14T11:56:01.038Z,16.80
2018-03-14T11:58:30.171Z,17.47
2018-03-14T12:00:59.658Z,19.37
2018-03-14T12:03:29.079Z,19.33
2018-03-14T12:05:58.321Z,20.37
2018-03-14T12:08:27.562Z,19.90
2018-03-14T12:10:56.733Z,18.87
2018-03-14T12:13:26.887Z,20.93
2018-03-14T12:15:56.045Z,20.03
2018-03-14T12:18:25.224Z,28.30
2018-03-14T12:20:54.573Z,21.77
2018-03-14T12:23:23.852Z,20.80
2018-03-14T12:25:53.862Z,19.47
2018-03-14T12:28:23.196Z,21.43
2018-03-14T12:30:52.392Z,23.60
2018-03-14T12:33:21.994Z,22.47
2018-03-14T12:35:51.277Z,20.37
2018-03-14T12:38:21.310Z,22.77
2018-03-14T12:40:50.490Z,22.00
2018-03-14T12:43:20.738Z,19.10
2018-03-14T12:45:50.731Z,20.60
2018-03-14T12:48:20.544Z,16.63
2018-03-14T12:50:50.810Z,19.10
2018-03-14T12:53:20.214Z,18.27
2018-03-14T12:55:49.604Z,19.03
2018-03-14T12:58:20.854Z,20.43
2018-03-14T13:00:50.231Z,19.07
2018-03-14T13:03:19.386Z,19.73
2018-03-14T13:05:48.704Z,18.60
2018-03-14T13:08:18.754Z,16.87
2018-03-14T13:10:48.183Z,20.60
2018-03-14T13:13:17.318Z,18.80
2018-03-14T13:15:47.259Z,20.60
2018-03-14T13:18:16.491Z,20.20
2018-03-14T13:20:45.659Z,19.00
2018-03-14T13:23:15.484Z,17.90
2018-03-14T13:25:44.702Z,22.40
2018-03-14T13:28:15.275Z,17.30
2018-03-14T13:30:45.110Z,17.60
2018-03-14T13:33:14.825Z,17.70
2018-03-14T13:35:45.091Z,18.17
2018-03-14T13:38:14.718Z,17.13
2018-03-14T13:40:44.897Z,18.37
2018-03-14T13:43:15.063Z,16.83
2018-03-14T13:45:44.921Z,16.47
2018-03-14T13:48:14.137Z,19.17
2018-03-14T13:50:43.612Z,16.03
2018-03-14T13:53:12.729Z,16.17
2018-03-14T13:55:41.905Z,17.73
2018-03-14T13:58:11.912Z,15.73
2018-03-14T14:00:41.391Z,18.83
2018-03-14T14:03:12.185Z,16.30
2018-03-14T14:05:42.152Z,15.87
2018-03-14T14:08:12.039Z,14.13
2018-03-14T14:10:43.083Z,14.63
2018-03-14T14:13:12.668Z,15.27
2018-03-14T14:15:42.439Z,16.83
2018-03-14T14:18:11.775Z,16.87
2018-03-14T14:20:40.929Z,15.87
2018-03-14T14:23:10.166Z,15.77
2018-03-14T14:25:39.371Z,16.10
2018-03-14T14:28:08.473Z,14.23
2018-03-14T14:30:37.391Z,13.77
2018-03-14T14:33:06.574Z,15.30
2018-03-14T14:35:35.648Z,19.73
2018-03-14T14:38:04.880Z,14.87
2018-03-14T14:40:35.055Z,16.40
2018-03-14T14:43:05.146Z,16.10
2018-03-14T14:45:35.263Z,16.77
2018-03-14T14:48:04.656Z,17.07
2018-03-14T14:50:35.634Z,17.27
2018-03-14T14:53:04.680Z,14.80
2018-03-14T14:55:34.634Z,16.77
2018-03-14T14:58:03.621Z,19.10
2018-03-14T15:00:32.747Z,16.30
2018-03-14T15:03:02.024Z,16.33
2018-03-14T15:05:30.940Z,14.47
2018-03-14T15:08:00.517Z,17.80
2018-03-14T15:10:29.545Z,18.10
2018-03-14T15:12:58.743Z,13.00
2018-03-14T15:15:27.755Z,15.60
2018-03-14T15:17:57.688Z,15.10
2018-03-14T15:20:26.973Z,12.87
2018-03-14T15:22:57.020Z,15.47
2018-03-14T15:25:26.793Z,18.73
2018-03-14T15:27:57.159Z,13.63
2018-03-14T15:30:26.151Z,10.90
2018-03-14T15:32:55.323Z,10.93
2018-03-14T15:35:25.203Z,13.40
2018-03-14T15:37:54.278Z,13.23
2018-03-14T15:40:23.363Z,13.23
2018-03-14T15:42:52.520Z,13.97
2018-03-14T15:45:22.426Z,16.00
2018-03-14T15:47:52.452Z,18.60
2018-03-14T15:50:22.132Z,13.60
2018-03-14T15:52:51.224Z,15.03
2018-03-14T15:55:20.192Z,15.80
2018-03-14T15:57:49.890Z,15.30
2018-03-14T16:00:19.014Z,19.57
2018-03-14T16:02:48.819Z,18.77
2018-03-14T16:05:17.720Z,16.93
2018-03-14T16:07:46.712Z,18.83
2018-03-14T16:10:16.111Z,19.20
2018-03-14T16:12:45.341Z,16.43
2018-03-14T16:15:14.933Z,17.90
2018-03-14T16:17:44.264Z,18.33
2018-03-14T16:20:13.274Z,18.60
2018-03-14T16:22:42.629Z,16.03
2018-03-14T16:25:11.895Z,20.40
2018-03-14T16:27:41.016Z,17.17
2018-03-14T16:30:10.173Z,16.67
2018-03-14T16:32:39.376Z,15.87
2018-03-14T16:35:08.500Z,16.60
2018-03-14T16:37:37.611Z,18.23
2018-03-14T16:40:07.267Z,20.13
2018-03-14T16:42:36.740Z,18.63
2018-03-14T16:45:06.457Z,16.87
2018-03-14T16:47:35.558Z,17.33
2018-03-14T16:50:04.861Z,17.90
2018-03-14T16:52:33.872Z,17.53
2018-03-14T16:55:03.433Z,16.77
2018-03-14T16:57:32.536Z,18.57
2018-03-14T17:00:01.804Z,19.47
2018-03-14T17:08:11.450Z,18.63
2018-03-14T17:10:41.009Z,22.27
2018-03-14T17:13:09.892Z,19.97
2018-03-14T17:15:39.834Z,21.27
2018-03-14T17:18:08.773Z,18.93
2018-03-14T17:20:38.036Z,19.53
2018-03-14T17:23:08.552Z,20.33
2018-03-14T17:25:37.561Z,22.00
2018-03-14T17:28:06.862Z,23.07
2018-03-14T17:30:35.890Z,22.97
2018-03-14T17:33:05.810Z,29.80
2018-03-14T17:35:34.620Z,24.27
2018-03-14T17:38:04.032Z,21.73
2018-03-14T17:40:33.192Z,22.60
2018-03-14T17:43:02.229Z,23.90
2018-03-14T17:45:32.063Z,29.57
2018-03-14T17:48:01.439Z,22.30
2018-03-14T17:50:34.085Z,22.97
2018-03-14T17:53:02.839Z,23.10
2018-03-14T17:55:31.740Z,26.23
2018-03-14T17:58:00.886Z,27.53
2018-03-14T18:00:29.987Z,25.03
2018-03-14T18:02:59.059Z,26.50
2018-03-14T18:05:28.781Z,26.37
2018-03-14T18:07:57.644Z,23.87
2018-03-14T18:10:27.781Z,22.90
2018-03-14T18:12:57.920Z,20.73
2018-03-14T18:15:26.880Z,24.13
2018-03-14T18:17:56.821Z,22.40
2018-03-14T18:20:25.903Z,20.53
2018-03-14T18:22:55.722Z,22.00
2018-03-14T18:25:24.706Z,20.53
2018-03-14T18:27:53.854Z,22.33
2018-03-14T18:30:23.291Z,19.47
2018-03-14T18:32:53.246Z,23.93
2018-03-14T18:35:22.318Z,19.07
2018-03-14T18:37:52.021Z,22.53
2018-03-14T18:40:20.929Z,22.53
2018-03-14T18:42:49.753Z,20.27
2018-03-14T18:45:18.955Z,21.80
2018-03-14T18:47:47.898Z,22.43
2018-03-14T18:50:16.724Z,21.10
2018-03-14T18:52:45.509Z,20.60
2018-03-14T18:55:14.244Z,20.17
2018-03-14T18:57:44.032Z,20.63
2018-03-14T19:00:18.239Z,21.57
2018-03-14T19:02:47.226Z,22.17
2018-03-14T19:05:16.316Z,20.57
2018-03-14T19:07:45.475Z,21.57
2018-03-14T19:10:14.667Z,21.17
2018-03-14T19:12:43.829Z,22.33
2018-03-14T19:15:12.957Z,21.10
2018-03-14T19:17:42.022Z,23.87
2018-03-14T19:20:12.681Z,24.60
2018-03-14T19:22:41.606Z,24.80
2018-03-14T19:25:10.447Z,32.30
2018-03-14T19:27:39.929Z,24.47
2018-03-14T19:30:09.112Z,21.77
2018-03-14T19:32:37.890Z,21.93
2018-03-14T19:35:07.056Z,20.97
2018-03-14T19:37:35.881Z,26.63
2018-03-14T19:40:05.073Z,22.27
2018-03-14T19:42:34.198Z,21.80
2018-03-14T19:45:03.113Z,24.90
2018-03-14T19:47:33.933Z,22.90
2018-03-14T19:50:03.998Z,23.30
2018-03-14T19:52:32.923Z,21.03
2018-03-14T19:55:02.793Z,24.77
2018-03-14T19:57:31.697Z,23.17
2018-03-14T20:00:00.749Z,25.00
2018-03-14T20:02:30.683Z,20.80
2018-03-14T20:05:00.077Z,22.83
2018-03-14T20:07:30.442Z,22.73
2018-03-14T20:10:00.352Z,25.70
2018-03-14T20:12:29.431Z,24.80
2018-03-14T20:14:58.614Z,21.70
2018-03-14T20:17:27.444Z,31.43
2018-03-14T20:19:56.462Z,24.67
2018-03-14T20:22:26.132Z,26.63
2018-03-14T20:24:55.051Z,41.77
2018-03-14T20:27:23.994Z,43.53
2018-03-14T20:29:52.833Z,38.63
2018-03-14T20:32:22.091Z,29.23
2018-03-14T20:34:51.196Z,28.57
2018-03-14T20:37:20.163Z,26.57
2018-03-14T20:39:49.240Z,25.90
2018-03-14T20:42:18.736Z,27.73
2018-03-14T20:44:48.536Z,22.23
2018-03-14T20:47:18.968Z,26.77
2018-03-14T20:49:49.344Z,34.90
2018-03-14T20:52:18.209Z,34.07
2018-03-14T20:54:47.355Z,25.80
2018-03-14T20:57:17.270Z,23.33
2018-03-14T20:59:46.208Z,23.60
2018-03-14T21:02:14.985Z,29.73
2018-03-14T21:04:44.742Z,23.10
2018-03-14T21:07:13.572Z,25.60
2018-03-14T21:09:43.164Z,22.73
2018-03-14T21:12:12.016Z,24.07
2018-03-14T21:14:40.832Z,24.23
2018-03-14T21:17:09.783Z,23.93
2018-03-14T21:19:38.979Z,22.73
2018-03-14T21:22:08.120Z,24.27
2018-03-14T21:24:37.290Z,25.93
2018-03-14T21:27:07.268Z,22.27
2018-03-14T21:29:36.799Z,26.90
2018-03-14T21:32:06.171Z,26.47
2018-03-14T21:34:35.732Z,43.23
2018-03-14T21:37:05.099Z,38.37
2018-03-14T21:39:34.735Z,33.60
2018-03-14T21:42:03.800Z,38.63
2018-03-14T21:44:32.916Z,29.90
2018-03-14T21:47:02.327Z,42.87
2018-03-14T21:49:31.161Z,38.37
2018-03-14T21:52:00.312Z,25.93
2018-03-14T21:54:29.544Z,21.67
2018-03-14T21:57:03.764Z,24.57
2018-03-14T21:59:32.947Z,19.57
2018-03-14T22:02:01.948Z,24.50
2018-03-14T22:04:30.967Z,23.53
2018-03-14T22:07:00.119Z,20.53
2018-03-14T22:09:29.112Z,21.63
2018-03-14T22:11:58.503Z,22.03
2018-03-14T22:14:28.090Z,24.30
2018-03-14T22:16:57.436Z,21.57
2018-03-14T22:19:26.325Z,22.10
2018-03-14T22:21:55.526Z,24.77
2018-03-14T22:24:25.389Z,28.00
2018-03-14T22:26:54.748Z,28.73
2018-03-14T22:29:24.261Z,27.23
2018-03-14T22:31:53.564Z,24.83
2018-03-14T22:34:23.156Z,27.67
2018-03-14T22:36:53.295Z,28.87
2018-03-14T22:39:22.507Z,34.50
2018-03-14T22:41:51.700Z,31.80
2018-03-14T22:44:20.999Z,27.57
2018-03-14T22:46:50.040Z,28.57
2018-03-14T22:49:19.253Z,25.63
2018-03-14T22:51:49.642Z,25.70
2018-03-14T22:54:18.526Z,30.37
2018-03-14T22:56:47.754Z,25.47
2018-03-14T22:59:17.580Z,24.87
2018-03-14T23:01:47.954Z,25.07
2018-03-14T23:04:16.923Z,24.37
2018-03-14T23:06:46.324Z,24.10
2018-03-14T23:09:16.198Z,24.93
2018-03-14T23:11:46.666Z,23.60
2018-03-14T23:14:16.155Z,22.70
2018-03-14T23:16:46.751Z,26.00
2018-03-14T23:19:16.874Z,23.97
2018-03-14T23:21:45.759Z,25.53
2018-03-14T23:24:14.831Z,22.63
2018-03-14T23:26:44.791Z,23.57
2018-03-14T23:29:13.611Z,22.57
2018-03-14T23:31:43.059Z,23.23
2018-03-14T23:34:12.701Z,23.50
2018-03-14T23:36:42.902Z,21.63
2018-03-14T23:39:12.807Z,21.70
2018-03-14T23:41:42.103Z,25.47
2018-03-14T23:44:11.242Z,23.77
2018-03-14T23:46:41.295Z,24.33
2018-03-14T23:49:11.221Z,25.80
2018-03-14T23:51:41.143Z,24.80
2018-03-14T23:54:10.340Z,25.67
2018-03-14T23:56:39.641Z,32.13
2018-03-14T23:59:09.199Z,36.65
